sensor_id;sensor_type;location;lat;lon;timestamp;pressure;altitude;pressure_sealevel;temperature;humidity
20909;BME280;10614;53.198;6.570;2022-11-21T00:01:36;100681.91;;;1.44;100.00
20909;BME280;10614;53.198;6.570;2022-11-21T00:03:38;100685.34;;;1.44;100.00
20909;BME280;10614;53.198;6.570;2022-11-21T00:05:41;100681.06;;;1.43;100.00
20909;BME280;10614;53.198;6.570;2022-11-21T00:07:43;100685.38;;;1.43;100.00
20909;BME280;10614;53.198;6.570;2022-11-21T00:09:45;100679.31;;;1.42;100.00
20909;BME280;10614;53.198;6.570;2022-11-21T00:11:49;100677.56;;;1.44;100.00
20909;BME280;10614;53.198;6.570;2022-11-21T00:13:51;100677.56;;;1.44;100.00
20909;BME280;10614;53.198;6.570;2022-11-21T00:15:53;100674.97;;;1.44;100.00
20909;BME280;10614;53.198;6.570;2022-11-21T00:17:55;100670.69;;;1.43;100.00
20909;BME280;10614;53.198;6.570;2022-11-21T00:19:56;100669.81;;;1.41;100.00
20909;BME280;10614;53.198;6.570;2022-11-21T00:21:58;100662.91;;;1.42;100.00
20909;BME280;10614;53.198;6.570;2022-11-21T00:24:00;100663.75;;;1.42;100.00
20909;BME280;10614;53.198;6.570;2022-11-21T00:26:05;100660.28;;;1.42;100.00
20909;BME280;10614;53.198;6.570;2022-11-21T00:28:08;100657.72;;;1.42;100.00
20909;BME280;10614;53.198;6.570;2022-11-21T00:30:11;100657.72;;;1.42;100.00
20909;BME280;10614;53.198;6.570;2022-11-21T00:32:12;100653.41;;;1.41;100.00
20909;BME280;10614;53.198;6.570;2022-11-21T00:34:14;100655.09;;;1.40;100.00
20909;BME280;10614;53.198;6.570;2022-11-21T00:36:16;100661.19;;;1.41;100.00
20909;BME280;10614;53.198;6.570;2022-11-21T00:38:17;100661.19;;;1.41;100.00
20909;BME280;10614;53.198;6.570;2022-11-21T00:40:19;100656.84;;;1.40;100.00
20909;BME280;10614;53.198;6.570;2022-11-21T00:42:21;100651.69;;;1.38;100.00
20909;BME280;10614;53.198;6.570;2022-11-21T00:44:24;100656.00;;;1.38;100.00
20909;BME280;10614;53.198;6.570;2022-11-21T00:46:26;100650.84;;;1.36;100.00
20909;BME280;10614;53.198;6.570;2022-11-21T00:48:28;100650.84;;;1.35;100.00
20909;BME280;10614;53.198;6.570;2022-11-21T00:50:30;100646.53;;;1.32;100.00
20909;BME280;10614;53.198;6.570;2022-11-21T00:52:31;100641.34;;;1.31;100.00
20909;BME280;10614;53.198;6.570;2022-11-21T00:54:33;100643.06;;;1.30;100.00
20909;BME280;10614;53.198;6.570;2022-11-21T00:56:35;100643.97;;;1.29;100.00
20909;BME280;10614;53.198;6.570;2022-11-21T00:58:36;100647.41;;;1.28;100.00
20909;BME280;10614;53.198;6.570;2022-11-21T01:00:39;100636.19;;;1.24;100.00
20909;BME280;10614;53.198;6.570;2022-11-21T01:02:41;100638.78;;;1.24;100.00
20909;BME280;10614;53.198;6.570;2022-11-21T01:04:43;100636.19;;;1.21;100.00
20909;BME280;10614;53.198;6.570;2022-11-21T01:06:44;100644.84;;;1.20;100.00
20909;BME280;10614;53.198;6.570;2022-11-21T01:08:46;100640.53;;;1.16;100.00
20909;BME280;10614;53.198;6.570;2022-11-21T01:10:47;100639.69;;;1.14;100.00
20909;BME280;10614;53.198;6.570;2022-11-21T01:12:49;100641.44;;;1.11;100.00
20909;BME280;10614;53.198;6.570;2022-11-21T01:14:51;100642.31;;;1.11;100.00
20909;BME280;10614;53.198;6.570;2022-11-21T01:16:54;100644.03;;;1.11;100.00
20909;BME280;10614;53.198;6.570;2022-11-21T01:18:56;100645.78;;;1.10;100.00
20909;BME280;10614;53.198;6.570;2022-11-21T01:20:58;100648.38;;;1.09;100.00
20909;BME280;10614;53.198;6.570;2022-11-21T01:23:00;100646.66;;;1.06;100.00
20909;BME280;10614;53.198;6.570;2022-11-21T01:25:02;100642.31;;;1.05;100.00
20909;BME280;10614;53.198;6.570;2022-11-21T01:27:04;100651.84;;;1.06;100.00
20909;BME280;10614;53.198;6.570;2022-11-21T01:29:05;100651.84;;;1.06;100.00
20909;BME280;10614;53.198;6.570;2022-11-21T01:31:09;100650.97;;;1.04;100.00
20909;BME280;10614;53.198;6.570;2022-11-21T01:33:12;100654.41;;;1.03;100.00
20909;BME280;10614;53.198;6.570;2022-11-21T01:35:14;100651.00;;;0.99;100.00
20909;BME280;10614;53.198;6.570;2022-11-21T01:37:16;100659.66;;;0.98;100.00
20909;BME280;10614;53.198;6.570;2022-11-21T01:39:17;100655.34;;;0.94;100.00
20909;BME280;10614;53.198;6.570;2022-11-21T01:41:20;100652.75;;;0.93;100.00
20909;BME280;10614;53.198;6.570;2022-11-21T01:43:22;100651.91;;;0.89;100.00
20909;BME280;10614;53.198;6.570;2022-11-21T01:45:50;100650.16;;;0.87;100.00
20909;BME280;10614;53.198;6.570;2022-11-21T01:47:53;100652.78;;;0.83;100.00
20909;BME280;10614;53.198;6.570;2022-11-21T01:49:57;100662.28;;;0.84;100.00
20909;BME280;10614;53.198;6.570;2022-11-21T01:52:02;100659.69;;;0.83;100.00
20909;BME280;10614;53.198;6.570;2022-11-21T01:54:08;100655.38;;;0.82;100.00
20909;BME280;10614;53.198;6.570;2022-11-21T01:56:13;100653.63;;;0.79;100.00
20909;BME280;10614;53.198;6.570;2022-11-21T01:58:15;100662.28;;;0.77;100.00
20909;BME280;10614;53.198;6.570;2022-11-21T02:00:21;100662.31;;;0.75;100.00
20909;BME280;10614;53.198;6.570;2022-11-21T02:02:28;100663.16;;;0.74;100.00
20909;BME280;10614;53.198;6.570;2022-11-21T02:04:32;100658.00;;;0.71;100.00
20909;BME280;10614;53.198;6.570;2022-11-21T02:06:36;100661.44;;;0.70;100.00
20909;BME280;10614;53.198;6.570;2022-11-21T02:08:39;100658.00;;;0.68;100.00
20909;BME280;10614;53.198;6.570;2022-11-21T02:10:48;100664.06;;;0.66;100.00
20909;BME280;10614;53.198;6.570;2022-11-21T02:12:51;100659.72;;;0.63;100.00
20909;BME280;10614;53.198;6.570;2022-11-21T02:14:54;100658.88;;;0.62;100.00
20909;BME280;10614;53.198;6.570;2022-11-21T02:16:59;100652.81;;;0.60;100.00
20909;BME280;10614;53.198;6.570;2022-11-21T02:19:03;100651.13;;;0.59;100.00
20909;BME280;10614;53.198;6.570;2022-11-21T02:21:11;100651.13;;;0.55;100.00
20909;BME280;10614;53.198;6.570;2022-11-21T02:23:21;100649.38;;;0.54;100.00
20909;BME280;10614;53.198;6.570;2022-11-21T02:25:27;100652.88;;;0.50;100.00
20909;BME280;10614;53.198;6.570;2022-11-21T02:27:30;100655.44;;;0.48;100.00
20909;BME280;10614;53.198;6.570;2022-11-21T02:29:31;100654.59;;;0.45;100.00
20909;BME280;10614;53.198;6.570;2022-11-21T02:31:33;100654.59;;;0.41;100.00
20909;BME280;10614;53.198;6.570;2022-11-21T02:33:35;100656.31;;;0.39;100.00
20909;BME280;10614;53.198;6.570;2022-11-21T02:35:36;100646.84;;;0.35;100.00
20909;BME280;10614;53.198;6.570;2022-11-21T02:37:38;100629.59;;;0.24;100.00
20909;BME280;10614;53.198;6.570;2022-11-21T02:39:40;100642.53;;;0.30;100.00
20909;BME280;10614;53.198;6.570;2022-11-21T02:41:49;100636.47;;;0.28;100.00
20909;BME280;10614;53.198;6.570;2022-11-21T02:43:56;100642.53;;;0.27;100.00
20909;BME280;10614;53.198;6.570;2022-11-21T02:45:59;100639.09;;;0.26;100.00
20909;BME280;10614;53.198;6.570;2022-11-21T02:48:01;100631.31;;;0.20;100.00
20909;BME280;10614;53.198;6.570;2022-11-21T02:50:09;100639.94;;;0.17;100.00
20909;BME280;10614;53.198;6.570;2022-11-21T02:52:13;100636.50;;;0.17;100.00
20909;BME280;10614;53.198;6.570;2022-11-21T02:54:15;100633.03;;;0.13;100.00
20909;BME280;10614;53.198;6.570;2022-11-21T02:56:16;100630.47;;;0.12;100.00
20909;BME280;10614;53.198;6.570;2022-11-21T02:58:20;100636.50;;;0.08;100.00
20909;BME280;10614;53.198;6.570;2022-11-21T03:00:22;100632.19;;;0.02;100.00
20909;BME280;10614;53.198;6.570;2022-11-21T03:02:24;100633.06;;;0.06;100.00
20909;BME280;10614;53.198;6.570;2022-11-21T03:04:25;100638.25;;;0.06;100.00
20909;BME280;10614;53.198;6.570;2022-11-21T03:06:28;100629.59;;;0.04;100.00
20909;BME280;10614;53.198;6.570;2022-11-21T03:08:29;100636.50;;;0.08;100.00
20909;BME280;10614;53.198;6.570;2022-11-21T03:10:31;100636.50;;;0.06;100.00
20909;BME280;10614;53.198;6.570;2022-11-21T03:12:34;100630.47;;;0.04;100.00
20909;BME280;10614;53.198;6.570;2022-11-21T03:14:37;100632.19;;;0.07;100.00
20909;BME280;10614;53.198;6.570;2022-11-21T03:16:39;100617.53;;;0.07;100.00
20909;BME280;10614;53.198;6.570;2022-11-21T03:18:41;100618.41;;;0.08;100.00
20909;BME280;10614;53.198;6.570;2022-11-21T03:20:42;100626.16;;;0.08;100.00
20909;BME280;10614;53.198;6.570;2022-11-21T03:22:44;100627.00;;;0.07;100.00
20909;BME280;10614;53.198;6.570;2022-11-21T03:24:45;100622.69;;;0.09;100.00
20909;BME280;10614;53.198;6.570;2022-11-21T03:26:47;100618.41;;;0.08;100.00
20909;BME280;10614;53.198;6.570;2022-11-21T03:28:49;100629.59;;;0.08;100.00
20909;BME280;10614;53.198;6.570;2022-11-21T03:30:52;100628.75;;;0.06;100.00
20909;BME280;10614;53.198;6.570;2022-11-21T03:32:54;100621.84;;;0.04;100.00
20909;BME280;10614;53.198;6.570;2022-11-21T03:34:56;100620.09;;;-0.01;100.00
20909;BME280;10614;53.198;6.570;2022-11-21T03:36:58;100619.25;;;-0.01;100.00
20909;BME280;10614;53.198;6.570;2022-11-21T03:38:59;100621.00;;;-0.02;100.00
20909;BME280;10614;53.198;6.570;2022-11-21T03:41:04;100629.59;;;-0.03;100.00
20909;BME280;10614;53.198;6.570;2022-11-21T03:43:26;100633.91;;;-0.08;100.00
20909;BME280;10614;53.198;6.570;2022-11-21T03:45:28;100625.28;;;-0.13;100.00
20909;BME280;10614;53.198;6.570;2022-11-21T03:47:33;100628.75;;;-0.11;100.00
20909;BME280;10614;53.198;6.570;2022-11-21T03:49:35;100631.34;;;-0.14;100.00
20909;BME280;10614;53.198;6.570;2022-11-21T03:51:37;100631.34;;;-0.14;100.00
20909;BME280;10614;53.198;6.570;2022-11-21T03:53:38;100633.91;;;-0.15;100.00
20909;BME280;10614;53.198;6.570;2022-11-21T03:55:41;100632.19;;;-0.18;100.00
20909;BME280;10614;53.198;6.570;2022-11-21T03:57:43;100633.06;;;-0.17;100.00
20909;BME280;10614;53.198;6.570;2022-11-21T03:59:45;100621.84;;;-0.18;100.00
20909;BME280;10614;53.198;6.570;2022-11-21T04:01:46;100622.72;;;-0.16;100.00
20909;BME280;10614;53.198;6.570;2022-11-21T04:03:50;100614.09;;;-0.16;100.00
20909;BME280;10614;53.198;6.570;2022-11-21T04:05:52;100616.69;;;-0.18;100.00
20909;BME280;10614;53.198;6.570;2022-11-21T04:07:53;100610.63;;;-0.15;100.00
20909;BME280;10614;53.198;6.570;2022-11-21T04:09:55;100603.75;;;-0.18;100.00
20909;BME280;10614;53.198;6.570;2022-11-21T04:11:56;100601.16;;;-0.18;100.00
20909;BME280;10614;53.198;6.570;2022-11-21T04:13:58;100598.56;;;-0.19;100.00
20909;BME280;10614;53.198;6.570;2022-11-21T04:16:00;100588.22;;;-0.18;100.00
20909;BME280;10614;53.198;6.570;2022-11-21T04:18:02;100584.78;;;-0.18;100.00
20909;BME280;10614;53.198;6.570;2022-11-21T04:20:05;100577.00;;;-0.20;100.00
20909;BME280;10614;53.198;6.570;2022-11-21T04:22:08;100578.75;;;-0.20;100.00
20909;BME280;10614;53.198;6.570;2022-11-21T04:24:10;100578.72;;;-0.22;100.00
20909;BME280;10614;53.198;6.570;2022-11-21T04:26:11;100571.84;;;-0.23;100.00
20909;BME280;10614;53.198;6.570;2022-11-21T04:28:13;100578.72;;;-0.22;100.00
20909;BME280;10614;53.198;6.570;2022-11-21T04:30:16;100568.38;;;-0.22;100.00
20909;BME280;10614;53.198;6.570;2022-11-21T04:32:17;100570.13;;;-0.21;100.00
20909;BME280;10614;53.198;6.570;2022-11-21T04:34:19;100562.34;;;-0.23;100.00
20909;BME280;10614;53.198;6.570;2022-11-21T04:36:22;100557.19;;;-0.23;100.00
20909;BME280;10614;53.198;6.570;2022-11-21T04:38:23;100546.81;;;-0.24;100.00
20909;BME280;10614;53.198;6.570;2022-11-21T04:40:25;100540.78;;;-0.26;100.00
20909;BME280;10614;53.198;6.570;2022-11-21T04:42:26;100533.91;;;-0.26;100.00
20909;BME280;10614;53.198;6.570;2022-11-21T04:44:28;100535.59;;;-0.26;100.00
20909;BME280;10614;53.198;6.570;2022-11-21T04:46:29;100533.03;;;-0.25;100.00
20909;BME280;10614;53.198;6.570;2022-11-21T04:48:31;100540.78;;;-0.25;100.00
20909;BME280;10614;53.198;6.570;2022-11-21T04:50:33;100560.59;;;-0.24;100.00
20909;BME280;10614;53.198;6.570;2022-11-21T04:52:36;100559.75;;;-0.23;100.00
20909;BME280;10614;53.198;6.570;2022-11-21T04:54:38;100548.56;;;-0.20;100.00
20909;BME280;10614;53.198;6.570;2022-11-21T04:56:39;100535.63;;;-0.18;100.00
20909;BME280;10614;53.198;6.570;2022-11-21T04:58:41;100517.50;;;-0.17;100.00
20909;BME280;10614;53.198;6.570;2022-11-21T05:00:43;100523.53;;;-0.18;100.00
20909;BME280;10614;53.198;6.570;2022-11-21T05:02:45;100527.00;;;-0.17;100.00
20909;BME280;10614;53.198;6.570;2022-11-21T05:04:47;100523.56;;;-0.16;100.00
20909;BME280;10614;53.198;6.570;2022-11-21T05:06:48;100512.31;;;-0.17;100.00
20909;BME280;10614;53.198;6.570;2022-11-21T05:08:52;100514.94;;;-0.18;100.00
20909;BME280;10614;53.198;6.570;2022-11-21T05:10:53;100514.03;;;-0.19;100.00
20909;BME280;10614;53.198;6.570;2022-11-21T05:13:13;100513.22;;;-0.21;100.00
20909;BME280;10614;53.198;6.570;2022-11-21T05:15:23;100518.38;;;-0.24;100.00
20909;BME280;10614;53.198;6.570;2022-11-21T05:17:26;100520.13;;;-0.32;100.00
20909;BME280;10614;53.198;6.570;2022-11-21T05:19:28;100516.69;;;-0.33;100.00
20909;BME280;10614;53.198;6.570;2022-11-21T05:21:30;100514.94;;;-0.32;100.00
20909;BME280;10614;53.198;6.570;2022-11-21T05:23:31;100510.63;;;-0.33;100.00
20909;BME280;10614;53.198;6.570;2022-11-21T05:25:34;100501.16;;;-0.34;100.00
20909;BME280;10614;53.198;6.570;2022-11-21T05:27:36;100502.88;;;-0.35;100.00
20909;BME280;10614;53.198;6.570;2022-11-21T05:29:37;100494.25;;;-0.37;100.00
20909;BME280;10614;53.198;6.570;2022-11-21T05:31:39;100504.59;;;-0.37;100.00
20909;BME280;10614;53.198;6.570;2022-11-21T05:33:41;100507.16;;;-0.40;100.00
20909;BME280;10614;53.198;6.570;2022-11-21T05:35:42;100508.03;;;-0.46;100.00
20909;BME280;10614;53.198;6.570;2022-11-21T05:37:44;100516.66;;;-0.48;100.00
20909;BME280;10614;53.198;6.570;2022-11-21T05:39:46;100519.25;;;-0.50;100.00
20909;BME280;10614;53.198;6.570;2022-11-21T05:41:49;100521.84;;;-0.56;100.00
20909;BME280;10614;53.198;6.570;2022-11-21T05:43:51;100527.00;;;-0.57;100.00
20909;BME280;10614;53.198;6.570;2022-11-21T05:45:51;100530.44;;;-0.55;100.00
20909;BME280;10614;53.198;6.570;2022-11-21T05:47:53;100533.91;;;-0.55;100.00
20909;BME280;10614;53.198;6.570;2022-11-21T05:49:55;100533.91;;;-0.55;100.00
20909;BME280;10614;53.198;6.570;2022-11-21T05:51:56;100527.00;;;-0.56;100.00
20909;BME280;10614;53.198;6.570;2022-11-21T05:53:58;100525.28;;;-0.54;100.00
20909;BME280;10614;53.198;6.570;2022-11-21T05:56:02;100527.88;;;-0.54;100.00
20909;BME280;10614;53.198;6.570;2022-11-21T05:58:06;100523.56;;;-0.53;100.00
20909;BME280;10614;53.198;6.570;2022-11-21T06:00:09;100521.81;;;-0.54;100.00
20909;BME280;10614;53.198;6.570;2022-11-21T06:02:10;100517.53;;;-0.54;100.00
20909;BME280;10614;53.198;6.570;2022-11-21T06:04:29;100509.78;;;-0.55;100.00
20909;BME280;10614;53.198;6.570;2022-11-21T06:06:31;100502.88;;;-0.59;100.00
20909;BME280;10614;53.198;6.570;2022-11-21T06:08:34;100506.31;;;-0.57;100.00
20909;BME280;10614;53.198;6.570;2022-11-21T06:10:36;100514.09;;;-0.60;100.00
20909;BME280;10614;53.198;6.570;2022-11-21T06:12:38;100522.69;;;-0.61;100.00
20909;BME280;10614;53.198;6.570;2022-11-21T06:14:41;100520.13;;;-0.60;100.00
20909;BME280;10614;53.198;6.570;2022-11-21T06:16:43;100515.78;;;-0.59;100.00
20909;BME280;10614;53.198;6.570;2022-11-21T06:18:46;100506.31;;;-0.65;100.00
20909;BME280;10614;53.198;6.570;2022-11-21T06:20:48;100503.72;;;-0.62;100.00
20909;BME280;10614;53.198;6.570;2022-11-21T06:22:50;100498.56;;;-0.62;100.00
20909;BME280;10614;53.198;6.570;2022-11-21T06:24:52;100502.88;;;-0.62;100.00
20909;BME280;10614;53.198;6.570;2022-11-21T06:26:54;100494.28;;;-0.63;100.00
20909;BME280;10614;53.198;6.570;2022-11-21T06:28:56;100494.28;;;-0.63;100.00
20909;BME280;10614;53.198;6.570;2022-11-21T06:31:02;100492.53;;;-0.64;100.00
20909;BME280;10614;53.198;6.570;2022-11-21T06:33:05;100502.00;;;-0.65;100.00
20909;BME280;10614;53.198;6.570;2022-11-21T06:35:07;100504.59;;;-0.65;100.00
20909;BME280;10614;53.198;6.570;2022-11-21T06:37:08;100498.56;;;-0.70;100.00
20909;BME280;10614;53.198;6.570;2022-11-21T06:39:10;100502.88;;;-0.67;100.00
20909;BME280;10614;53.198;6.570;2022-11-21T06:41:14;100511.47;;;-0.68;100.00
20909;BME280;10614;53.198;6.570;2022-11-21T06:43:16;100512.34;;;-0.68;100.00
20909;BME280;10614;53.198;6.570;2022-11-21T06:45:17;100505.44;;;-0.69;100.00
20909;BME280;10614;53.198;6.570;2022-11-21T06:47:20;100496.00;;;-0.70;100.00
20909;BME280;10614;53.198;6.570;2022-11-21T06:49:22;100496.84;;;-0.71;100.00
20909;BME280;10614;53.198;6.570;2022-11-21T06:51:24;100490.81;;;-0.71;100.00
20909;BME280;10614;53.198;6.570;2022-11-21T06:53:26;100492.53;;;-0.75;100.00
20909;BME280;10614;53.198;6.570;2022-11-21T06:55:28;100501.13;;;-0.73;100.00
20909;BME280;10614;53.198;6.570;2022-11-21T06:57:31;100507.19;;;-0.72;100.00
20909;BME280;10614;53.198;6.570;2022-11-21T06:59:33;100512.34;;;-0.74;100.00
20909;BME280;10614;53.198;6.570;2022-11-21T07:01:34;100511.50;;;-0.74;100.00
20909;BME280;10614;53.198;6.570;2022-11-21T07:03:38;100514.91;;;-0.75;100.00
20909;BME280;10614;53.198;6.570;2022-11-21T07:05:39;100510.59;;;-0.78;100.00
20909;BME280;10614;53.198;6.570;2022-11-21T07:07:41;100512.31;;;-0.80;100.00
20909;BME280;10614;53.198;6.570;2022-11-21T07:09:43;100505.47;;;-0.79;100.00
20909;BME280;10614;53.198;6.570;2022-11-21T07:11:46;100508.88;;;-0.80;100.00
20909;BME280;10614;53.198;6.570;2022-11-21T07:13:48;100516.66;;;-0.82;100.00
20909;BME280;10614;53.198;6.570;2022-11-21T07:15:49;100507.16;;;-0.83;100.00
20909;BME280;10614;53.198;6.570;2022-11-21T07:17:52;100516.66;;;-0.83;100.00
20909;BME280;10614;53.198;6.570;2022-11-21T07:19:54;100517.50;;;-0.86;100.00
20909;BME280;10614;53.198;6.570;2022-11-21T07:21:56;100527.00;;;-0.87;100.00
20909;BME280;10614;53.198;6.570;2022-11-21T07:23:58;100523.53;;;-0.89;100.00
20909;BME280;10614;53.198;6.570;2022-11-21T07:26:01;100537.31;;;-0.88;100.00
20909;BME280;10614;53.198;6.570;2022-11-21T07:28:03;100532.13;;;-0.90;100.00
20909;BME280;10614;53.198;6.570;2022-11-21T07:30:06;100533.84;;;-0.92;100.00
20909;BME280;10614;53.198;6.570;2022-11-21T07:32:08;100536.44;;;-0.93;100.00
20909;BME280;10614;53.198;6.570;2022-11-21T07:34:10;100532.13;;;-0.93;100.00
20909;BME280;10614;53.198;6.570;2022-11-21T07:36:13;100532.13;;;-0.93;100.00
20909;BME280;10614;53.198;6.570;2022-11-21T07:38:14;100535.59;;;-0.91;100.00
20909;BME280;10614;53.198;6.570;2022-11-21T07:40:17;100526.97;;;-0.91;100.00
20909;BME280;10614;53.198;6.570;2022-11-21T07:42:19;100526.13;;;-0.89;100.00
20909;BME280;10614;53.198;6.570;2022-11-21T07:44:20;100515.78;;;-0.89;100.00
20909;BME280;10614;53.198;6.570;2022-11-21T07:46:22;100510.59;;;-0.92;100.00
20909;BME280;10614;53.198;6.570;2022-11-21T07:48:24;100519.25;;;-0.87;100.00
20909;BME280;10614;53.198;6.570;2022-11-21T07:50:26;100504.56;;;-0.89;100.00
20909;BME280;10614;53.198;6.570;2022-11-21T07:52:29;100506.31;;;-0.87;100.00
20909;BME280;10614;53.198;6.570;2022-11-21T07:54:31;100503.72;;;-0.85;100.00
20909;BME280;10614;53.198;6.570;2022-11-21T07:56:33;100492.53;;;-0.86;100.00
20909;BME280;10614;53.198;6.570;2022-11-21T07:58:35;100496.84;;;-0.86;100.00
20909;BME280;10614;53.198;6.570;2022-11-21T08:00:38;100492.53;;;-0.84;100.00
20909;BME280;10614;53.198;6.570;2022-11-21T08:02:41;100492.50;;;-0.82;100.00
20909;BME280;10614;53.198;6.570;2022-11-21T08:04:43;100489.94;;;-0.82;100.00
20909;BME280;10614;53.198;6.570;2022-11-21T08:06:45;100494.25;;;-0.81;100.00
20909;BME280;10614;53.198;6.570;2022-11-21T08:08:51;100497.72;;;-0.79;100.00
20909;BME280;10614;53.198;6.570;2022-11-21T08:10:52;100497.69;;;-0.81;100.00
20909;BME280;10614;53.198;6.570;2022-11-21T08:12:54;100499.41;;;-0.78;100.00
20909;BME280;10614;53.198;6.570;2022-11-21T08:14:56;100493.38;;;-0.77;100.00
20909;BME280;10614;53.198;6.570;2022-11-21T08:16:58;100493.38;;;-0.76;100.00
20909;BME280;10614;53.198;6.570;2022-11-21T08:19:00;100487.38;;;-0.76;100.00
20909;BME280;10614;53.198;6.570;2022-11-21T08:21:02;100489.97;;;-0.75;100.00
20909;BME280;10614;53.198;6.570;2022-11-21T08:23:05;100478.75;;;-0.74;100.00
20909;BME280;10614;53.198;6.570;2022-11-21T08:25:09;100477.88;;;-0.73;100.00
20909;BME280;10614;53.198;6.570;2022-11-21T08:27:11;100468.41;;;-0.72;100.00
20909;BME280;10614;53.198;6.570;2022-11-21T08:29:13;100467.53;;;-0.73;100.00
20909;BME280;10614;53.198;6.570;2022-11-21T08:31:16;100462.38;;;-0.70;100.00
20909;BME280;10614;53.198;6.570;2022-11-21T08:33:17;100463.22;;;-0.66;100.00
20909;BME280;10614;53.198;6.570;2022-11-21T08:35:19;100457.22;;;-0.65;100.00
20909;BME280;10614;53.198;6.570;2022-11-21T08:37:21;100453.75;;;-0.62;100.00
20909;BME280;10614;53.198;6.570;2022-11-21T08:39:23;100458.91;;;-0.61;100.00
20909;BME280;10614;53.198;6.570;2022-11-21T08:41:26;100458.94;;;-0.58;100.00
20909;BME280;10614;53.198;6.570;2022-11-21T08:43:46;100456.34;;;-0.55;100.00
20909;BME280;10614;53.198;6.570;2022-11-21T08:45:48;100468.41;;;-0.52;100.00
20909;BME280;10614;53.198;6.570;2022-11-21T08:47:49;100465.84;;;-0.49;100.00
20909;BME280;10614;53.198;6.570;2022-11-21T08:49:51;100468.38;;;-0.48;100.00
20909;BME280;10614;53.198;6.570;2022-11-21T08:51:53;100470.97;;;-0.45;100.00
20909;BME280;10614;53.198;6.570;2022-11-21T08:53:54;100470.97;;;-0.41;100.00
20909;BME280;10614;53.198;6.570;2022-11-21T08:55:56;100479.59;;;-0.39;100.00
20909;BME280;10614;53.198;6.570;2022-11-21T08:57:59;100476.16;;;-0.37;100.00
20909;BME280;10614;53.198;6.570;2022-11-21T09:00:01;100472.69;;;-0.34;100.00
20909;BME280;10614;53.198;6.570;2022-11-21T09:02:03;100465.78;;;-0.29;100.00
20909;BME280;10614;53.198;6.570;2022-11-21T09:04:05;100464.91;;;-0.28;100.00
20909;BME280;10614;53.198;6.570;2022-11-21T09:06:06;100465.78;;;-0.25;100.00
20909;BME280;10614;53.198;6.570;2022-11-21T09:08:08;100463.19;;;-0.22;100.00
20909;BME280;10614;53.198;6.570;2022-11-21T09:10:10;100460.59;;;-0.20;100.00
20909;BME280;10614;53.198;6.570;2022-11-21T09:12:12;100459.72;;;-0.17;100.00
20909;BME280;10614;53.198;6.570;2022-11-21T09:14:15;100450.25;;;-0.15;100.00
20909;BME280;10614;53.198;6.570;2022-11-21T09:16:35;100457.13;;;-0.13;100.00
20909;BME280;10614;53.198;6.570;2022-11-21T09:18:54;100444.19;;;-0.10;100.00
20909;BME280;10614;53.198;6.570;2022-11-21T09:20:55;100440.75;;;-0.09;100.00
20909;BME280;10614;53.198;6.570;2022-11-21T09:23:02;100439.03;;;-0.07;100.00
20909;BME280;10614;53.198;6.570;2022-11-21T09:25:04;100443.31;;;-0.04;100.00
20909;BME280;10614;53.198;6.570;2022-11-21T09:27:06;100436.41;;;-0.02;100.00
20909;BME280;10614;53.198;6.570;2022-11-21T09:29:08;100445.00;;;0.02;100.00
20909;BME280;10614;53.198;6.570;2022-11-21T09:31:11;100441.56;;;0.03;100.00
20909;BME280;10614;53.198;6.570;2022-11-21T09:33:14;100437.25;;;0.06;100.00
20909;BME280;10614;53.198;6.570;2022-11-21T09:35:16;100435.50;;;0.10;100.00
20909;BME280;10614;53.198;6.570;2022-11-21T09:37:19;100430.34;;;0.10;100.00
20909;BME280;10614;53.198;6.570;2022-11-21T09:39:21;100425.13;;;0.13;100.00
20909;BME280;10614;53.198;6.570;2022-11-21T09:41:28;100421.69;;;0.12;100.00
20909;BME280;10614;53.198;6.570;2022-11-21T09:43:56;100424.25;;;0.17;100.00
20909;BME280;10614;53.198;6.570;2022-11-21T09:46:05;100422.50;;;0.20;100.00
20909;BME280;10614;53.198;6.570;2022-11-21T09:48:13;100407.00;;;0.19;100.00
20909;BME280;10614;53.198;6.570;2022-11-21T09:50:23;100412.16;;;0.20;100.00
20909;BME280;10614;53.198;6.570;2022-11-21T09:52:31;100412.16;;;0.22;100.00
20909;BME280;10614;53.198;6.570;2022-11-21T09:54:39;100414.72;;;0.25;100.00
20909;BME280;10614;53.198;6.570;2022-11-21T09:56:42;100414.72;;;0.25;100.00
20909;BME280;10614;53.198;6.570;2022-11-21T09:58:47;100400.94;;;0.26;100.00
20909;BME280;10614;53.198;6.570;2022-11-21T10:00:50;100392.28;;;0.27;100.00
20909;BME280;10614;53.198;6.570;2022-11-21T10:02:53;100383.66;;;0.28;100.00
20909;BME280;10614;53.198;6.570;2022-11-21T10:04:56;100389.69;;;0.29;100.00
20909;BME280;10614;53.198;6.570;2022-11-21T10:07:01;100383.63;;;0.31;100.00
20909;BME280;10614;53.198;6.570;2022-11-21T10:09:08;100371.56;;;0.33;100.00
20909;BME280;10614;53.198;6.570;2022-11-21T10:11:21;100374.09;;;0.35;100.00
20909;BME280;10614;53.198;6.570;2022-11-21T10:13:36;100356.00;;;0.36;100.00
20909;BME280;10614;53.198;6.570;2022-11-21T10:15:54;100354.25;;;0.38;100.00
20909;BME280;10614;53.198;6.570;2022-11-21T10:18:12;100345.59;;;0.41;100.00
20909;BME280;10614;53.198;6.570;2022-11-21T10:20:30;100339.53;;;0.44;100.00
20909;BME280;10614;53.198;6.570;2022-11-21T10:22:48;100336.09;;;0.45;100.00
20909;BME280;10614;53.198;6.570;2022-11-21T10:24:58;100339.50;;;0.50;100.00
20909;BME280;10614;53.198;6.570;2022-11-21T10:27:06;100337.78;;;0.52;100.00
20909;BME280;10614;53.198;6.570;2022-11-21T10:29:18;100332.56;;;0.53;100.00
20909;BME280;10614;53.198;6.570;2022-11-21T10:31:20;100338.59;;;0.57;100.00
20909;BME280;10614;53.198;6.570;2022-11-21T10:33:25;100340.31;;;0.58;100.00
20909;BME280;10614;53.198;6.570;2022-11-21T10:35:35;100345.47;;;0.58;100.00
20909;BME280;10614;53.198;6.570;2022-11-21T10:37:45;100333.41;;;0.57;100.00
20909;BME280;10614;53.198;6.570;2022-11-21T10:39:50;100330.78;;;0.61;100.00
20909;BME280;10614;53.198;6.570;2022-11-21T10:41:57;100329.06;;;0.63;100.00